sensor_id;sensor_type;location;lat;lon;timestamp;P1;durP1;ratioP1;P2;durP2;ratioP2
72109;SDS011;59983;52.010;5.420;2023-09-19T00:00:35;7.30;;;4.32;;
72109;SDS011;59983;52.010;5.420;2023-09-19T00:03:02;9.60;;;4.95;;
72109;SDS011;59983;52.010;5.420;2023-09-19T00:05:33;8.73;;;4.28;;
72109;SDS011;59983;52.010;5.420;2023-09-19T00:08:01;5.40;;;4.13;;
72109;SDS011;59983;52.010;5.420;2023-09-19T00:10:32;7.10;;;4.13;;
72109;SDS011;59983;52.010;5.420;2023-09-19T00:13:02;10.48;;;5.18;;
72109;SDS011;59983;52.010;5.420;2023-09-19T00:15:37;6.63;;;5.05;;
72109;SDS011;59983;52.010;5.420;2023-09-19T00:18:08;8.60;;;5.30;;
72109;SDS011;59983;52.010;5.420;2023-09-19T00:20:36;5.70;;;4.30;;
72109;SDS011;59983;52.010;5.420;2023-09-19T00:23:03;10.13;;;4.63;;
72109;SDS011;59983;52.010;5.420;2023-09-19T00:25:35;9.75;;;4.75;;
72109;SDS011;59983;52.010;5.420;2023-09-19T00:28:04;7.20;;;5.07;;
72109;SDS011;59983;52.010;5.420;2023-09-19T00:30:33;5.53;;;4.93;;
72109;SDS011;59983;52.010;5.420;2023-09-19T00:33:00;11.18;;;4.30;;
72109;SDS011;59983;52.010;5.420;2023-09-19T00:35:29;6.57;;;4.30;;
72109;SDS011;59983;52.010;5.420;2023-09-19T00:37:56;5.20;;;4.55;;
72109;SDS011;59983;52.010;5.420;2023-09-19T00:40:22;14.82;;;4.85;;
72109;SDS011;59983;52.010;5.420;2023-09-19T00:42:50;6.50;;;4.53;;
72109;SDS011;59983;52.010;5.420;2023-09-19T00:45:17;10.50;;;4.30;;
72109;SDS011;59983;52.010;5.420;2023-09-19T00:47:45;8.63;;;5.23;;
72109;SDS011;59983;52.010;5.420;2023-09-19T00:50:18;10.48;;;4.53;;
72109;SDS011;59983;52.010;5.420;2023-09-19T00:52:48;8.88;;;4.95;;
72109;SDS011;59983;52.010;5.420;2023-09-19T00:55:16;8.40;;;5.13;;
72109;SDS011;59983;52.010;5.420;2023-09-19T00:57:46;5.78;;;5.18;;
72109;SDS011;59983;52.010;5.420;2023-09-19T01:00:13;7.93;;;4.33;;
72109;SDS011;59983;52.010;5.420;2023-09-19T01:02:42;10.55;;;5.63;;
72109;SDS011;59983;52.010;5.420;2023-09-19T01:05:10;5.35;;;4.85;;
72109;SDS011;59983;52.010;5.420;2023-09-19T01:07:38;9.20;;;4.88;;
72109;SDS011;59983;52.010;5.420;2023-09-19T01:10:08;10.25;;;5.20;;
72109;SDS011;59983;52.010;5.420;2023-09-19T01:12:46;15.67;;;5.53;;
72109;SDS011;59983;52.010;5.420;2023-09-19T01:29:46;10.32;;;4.97;;
72109;SDS011;59983;52.010;5.420;2023-09-19T01:32:21;10.23;;;4.47;;
72109;SDS011;59983;52.010;5.420;2023-09-19T01:34:52;12.65;;;4.75;;
72109;SDS011;59983;52.010;5.420;2023-09-19T01:37:22;9.15;;;4.95;;
72109;SDS011;59983;52.010;5.420;2023-09-19T01:39:57;9.47;;;5.23;;
72109;SDS011;59983;52.010;5.420;2023-09-19T01:42:42;11.15;;;6.32;;
72109;SDS011;59983;52.010;5.420;2023-09-19T01:47:49;10.98;;;4.13;;
72109;SDS011;59983;52.010;5.420;2023-09-19T01:52:54;10.00;;;5.40;;
72109;SDS011;59983;52.010;5.420;2023-09-19T01:55:27;12.10;;;4.60;;
72109;SDS011;59983;52.010;5.420;2023-09-19T01:58:08;7.13;;;4.82;;
72109;SDS011;59983;52.010;5.420;2023-09-19T02:00:42;9.45;;;4.53;;
72109;SDS011;59983;52.010;5.420;2023-09-19T02:03:11;12.25;;;5.05;;
72109;SDS011;59983;52.010;5.420;2023-09-19T02:05:39;9.23;;;4.33;;
72109;SDS011;59983;52.010;5.420;2023-09-19T02:08:05;8.65;;;4.85;;
72109;SDS011;59983;52.010;5.420;2023-09-19T02:10:32;12.15;;;5.30;;
72109;SDS011;59983;52.010;5.420;2023-09-19T02:12:58;12.25;;;4.95;;
72109;SDS011;59983;52.010;5.420;2023-09-19T02:15:25;10.63;;;4.82;;
72109;SDS011;59983;52.010;5.420;2023-09-19T02:17:52;9.50;;;4.40;;
72109;SDS011;59983;52.010;5.420;2023-09-19T02:20:19;9.98;;;4.93;;
72109;SDS011;59983;52.010;5.420;2023-09-19T02:22:47;10.75;;;4.80;;
72109;SDS011;59983;52.010;5.420;2023-09-19T02:25:16;15.80;;;5.25;;
72109;SDS011;59983;52.010;5.420;2023-09-19T02:27:42;7.78;;;5.03;;
72109;SDS011;59983;52.010;5.420;2023-09-19T02:30:09;10.13;;;4.63;;
72109;SDS011;59983;52.010;5.420;2023-09-19T02:32:36;16.75;;;5.22;;
72109;SDS011;59983;52.010;5.420;2023-09-19T02:35:05;10.27;;;5.32;;
72109;SDS011;59983;52.010;5.420;2023-09-19T02:37:32;8.52;;;4.22;;
72109;SDS011;59983;52.010;5.420;2023-09-19T02:39:59;11.23;;;4.43;;
72109;SDS011;59983;52.010;5.420;2023-09-19T02:42:26;7.17;;;4.43;;
72109;SDS011;59983;52.010;5.420;2023-09-19T02:44:52;8.98;;;4.22;;
72109;SDS011;59983;52.010;5.420;2023-09-19T02:47:19;12.05;;;4.18;;
72109;SDS011;59983;52.010;5.420;2023-09-19T02:49:46;9.77;;;4.97;;
72109;SDS011;59983;52.010;5.420;2023-09-19T02:52:12;7.13;;;3.72;;
72109;SDS011;59983;52.010;5.420;2023-09-19T02:54:40;9.10;;;4.70;;
72109;SDS011;59983;52.010;5.420;2023-09-19T02:57:08;15.93;;;5.70;;
72109;SDS011;59983;52.010;5.420;2023-09-19T02:59:34;9.00;;;4.72;;
72109;SDS011;59983;52.010;5.420;2023-09-19T03:02:03;12.50;;;5.15;;
72109;SDS011;59983;52.010;5.420;2023-09-19T03:04:31;11.55;;;4.63;;
72109;SDS011;59983;52.010;5.420;2023-09-19T03:06:59;14.53;;;4.70;;
72109;SDS011;59983;52.010;5.420;2023-09-19T03:09:27;18.25;;;5.32;;
72109;SDS011;59983;52.010;5.420;2023-09-19T03:11:53;6.45;;;4.13;;
72109;SDS011;59983;52.010;5.420;2023-09-19T03:14:20;8.00;;;4.60;;
72109;SDS011;59983;52.010;5.420;2023-09-19T03:16:47;13.52;;;4.55;;
72109;SDS011;59983;52.010;5.420;2023-09-19T03:19:14;12.77;;;4.60;;
72109;SDS011;59983;52.010;5.420;2023-09-19T03:21:41;18.33;;;5.32;;
72109;SDS011;59983;52.010;5.420;2023-09-19T03:24:08;9.93;;;4.82;;
72109;SDS011;59983;52.010;5.420;2023-09-19T03:26:34;10.88;;;5.03;;
72109;SDS011;59983;52.010;5.420;2023-09-19T03:29:05;10.95;;;4.82;;
72109;SDS011;59983;52.010;5.420;2023-09-19T03:31:36;9.70;;;4.43;;
72109;SDS011;59983;52.010;5.420;2023-09-19T03:34:03;11.98;;;5.10;;
72109;SDS011;59983;52.010;5.420;2023-09-19T03:36:30;8.90;;;4.75;;
72109;SDS011;59983;52.010;5.420;2023-09-19T03:38:56;11.75;;;5.70;;
72109;SDS011;59983;52.010;5.420;2023-09-19T03:41:23;8.07;;;4.82;;
72109;SDS011;59983;52.010;5.420;2023-09-19T03:43:49;18.10;;;4.23;;
72109;SDS011;59983;52.010;5.420;2023-09-19T03:46:16;26.75;;;5.03;;
72109;SDS011;59983;52.010;5.420;2023-09-19T03:48:43;11.23;;;4.93;;
72109;SDS011;59983;52.010;5.420;2023-09-19T03:51:09;14.57;;;4.93;;
72109;SDS011;59983;52.010;5.420;2023-09-19T03:53:37;11.98;;;4.25;;
72109;SDS011;59983;52.010;5.420;2023-09-19T03:56:04;6.20;;;4.17;;
72109;SDS011;59983;52.010;5.420;2023-09-19T03:58:30;9.60;;;4.40;;
72109;SDS011;59983;52.010;5.420;2023-09-19T04:00:57;5.72;;;4.45;;
72109;SDS011;59983;52.010;5.420;2023-09-19T04:03:24;15.07;;;4.97;;
72109;SDS011;59983;52.010;5.420;2023-09-19T04:06:01;10.65;;;4.82;;
72109;SDS011;59983;52.010;5.420;2023-09-19T04:08:28;9.83;;;4.43;;
72109;SDS011;59983;52.010;5.420;2023-09-19T04:10:55;6.82;;;3.88;;
72109;SDS011;59983;52.010;5.420;2023-09-19T04:13:23;14.90;;;4.93;;
72109;SDS011;59983;52.010;5.420;2023-09-19T04:15:49;10.50;;;4.72;;
72109;SDS011;59983;52.010;5.420;2023-09-19T04:18:16;7.88;;;4.63;;
72109;SDS011;59983;52.010;5.420;2023-09-19T04:20:47;8.57;;;4.83;;
72109;SDS011;59983;52.010;5.420;2023-09-19T04:23:15;4.60;;;4.20;;
72109;SDS011;59983;52.010;5.420;2023-09-19T04:25:41;9.55;;;5.05;;
72109;SDS011;59983;52.010;5.420;2023-09-19T04:28:09;7.43;;;4.50;;
72109;SDS011;59983;52.010;5.420;2023-09-19T04:30:38;7.13;;;5.22;;
72109;SDS011;59983;52.010;5.420;2023-09-19T04:33:06;11.47;;;5.03;;
72109;SDS011;59983;52.010;5.420;2023-09-19T04:35:34;8.93;;;5.60;;
72109;SDS011;59983;52.010;5.420;2023-09-19T04:38:01;7.40;;;4.68;;
72109;SDS011;59983;52.010;5.420;2023-09-19T04:40:29;5.15;;;4.65;;
72109;SDS011;59983;52.010;5.420;2023-09-19T04:42:56;6.97;;;4.15;;
72109;SDS011;59983;52.010;5.420;2023-09-19T04:45:23;7.10;;;4.37;;
72109;SDS011;59983;52.010;5.420;2023-09-19T04:47:50;9.57;;;4.40;;
72109;SDS011;59983;52.010;5.420;2023-09-19T04:50:17;6.28;;;4.15;;
72109;SDS011;59983;52.010;5.420;2023-09-19T04:52:44;10.02;;;4.82;;
72109;SDS011;59983;52.010;5.420;2023-09-19T04:55:12;7.78;;;5.22;;
72109;SDS011;59983;52.010;5.420;2023-09-19T04:57:49;5.07;;;4.57;;
72109;SDS011;59983;52.010;5.420;2023-09-19T05:00:17;6.75;;;4.63;;
72109;SDS011;59983;52.010;5.420;2023-09-19T05:02:48;4.63;;;4.15;;
72109;SDS011;59983;52.010;5.420;2023-09-19T05:05:16;12.80;;;4.80;;
72109;SDS011;59983;52.010;5.420;2023-09-19T05:07:44;8.30;;;5.03;;
72109;SDS011;59983;52.010;5.420;2023-09-19T05:10:11;5.40;;;4.03;;
72109;SDS011;59983;52.010;5.420;2023-09-19T05:12:39;8.43;;;4.63;;
72109;SDS011;59983;52.010;5.420;2023-09-19T05:15:06;9.88;;;4.65;;
72109;SDS011;59983;52.010;5.420;2023-09-19T05:17:34;6.55;;;4.60;;
72109;SDS011;59983;52.010;5.420;2023-09-19T05:20:04;15.32;;;5.22;;
72109;SDS011;59983;52.010;5.420;2023-09-19T05:22:41;7.37;;;4.13;;
72109;SDS011;59983;52.010;5.420;2023-09-19T05:25:09;6.75;;;4.38;;
72109;SDS011;59983;52.010;5.420;2023-09-19T05:27:37;9.05;;;4.70;;
72109;SDS011;59983;52.010;5.420;2023-09-19T05:30:03;9.68;;;4.60;;
72109;SDS011;59983;52.010;5.420;2023-09-19T05:32:31;11.20;;;5.45;;
72109;SDS011;59983;52.010;5.420;2023-09-19T05:34:57;7.60;;;4.77;;
72109;SDS011;59983;52.010;5.420;2023-09-19T05:37:24;11.48;;;4.70;;
72109;SDS011;59983;52.010;5.420;2023-09-19T05:39:52;10.65;;;5.38;;
72109;SDS011;59983;52.010;5.420;2023-09-19T05:42:21;7.05;;;4.30;;
72109;SDS011;59983;52.010;5.420;2023-09-19T05:44:48;7.07;;;4.15;;
72109;SDS011;59983;52.010;5.420;2023-09-19T05:47:15;6.60;;;4.90;;
72109;SDS011;59983;52.010;5.420;2023-09-19T05:49:41;9.48;;;4.60;;
72109;SDS011;59983;52.010;5.420;2023-09-19T05:52:08;8.10;;;4.60;;
72109;SDS011;59983;52.010;5.420;2023-09-19T05:54:35;9.30;;;4.43;;
72109;SDS011;59983;52.010;5.420;2023-09-19T05:57:01;9.35;;;5.07;;
72109;SDS011;59983;52.010;5.420;2023-09-19T05:59:28;9.63;;;5.10;;
72109;SDS011;59983;52.010;5.420;2023-09-19T06:01:55;6.10;;;4.47;;
72109;SDS011;59983;52.010;5.420;2023-09-19T06:04:21;11.07;;;4.50;;
72109;SDS011;59983;52.010;5.420;2023-09-19T06:06:48;14.55;;;4.50;;
72109;SDS011;59983;52.010;5.420;2023-09-19T06:09:15;8.73;;;4.60;;
72109;SDS011;59983;52.010;5.420;2023-09-19T06:11:42;10.50;;;5.23;;
72109;SDS011;59983;52.010;5.420;2023-09-19T06:14:08;7.63;;;4.30;;
72109;SDS011;59983;52.010;5.420;2023-09-19T06:16:36;8.02;;;4.03;;
72109;SDS011;59983;52.010;5.420;2023-09-19T06:19:07;9.90;;;3.55;;
72109;SDS011;59983;52.010;5.420;2023-09-19T06:21:36;8.75;;;4.45;;
72109;SDS011;59983;52.010;5.420;2023-09-19T06:24:03;6.13;;;4.03;;
72109;SDS011;59983;52.010;5.420;2023-09-19T06:26:30;5.65;;;3.60;;
72109;SDS011;59983;52.010;5.420;2023-09-19T06:28:57;8.02;;;4.20;;
72109;SDS011;59983;52.010;5.420;2023-09-19T06:31:24;13.07;;;4.38;;
72109;SDS011;59983;52.010;5.420;2023-09-19T06:33:52;8.57;;;4.45;;
72109;SDS011;59983;52.010;5.420;2023-09-19T06:36:19;6.23;;;4.13;;
72109;SDS011;59983;52.010;5.420;2023-09-19T06:38:46;11.13;;;4.25;;
72109;SDS011;59983;52.010;5.420;2023-09-19T06:41:13;5.90;;;4.38;;
72109;SDS011;59983;52.010;5.420;2023-09-19T06:43:43;12.85;;;4.07;;
72109;SDS011;59983;52.010;5.420;2023-09-19T06:46:10;7.15;;;3.97;;
72109;SDS011;59983;52.010;5.420;2023-09-19T06:48:39;8.80;;;3.97;;
72109;SDS011;59983;52.010;5.420;2023-09-19T06:51:06;12.07;;;4.60;;
72109;SDS011;59983;52.010;5.420;2023-09-19T06:53:34;8.93;;;4.53;;
72109;SDS011;59983;52.010;5.420;2023-09-19T06:56:02;7.45;;;3.92;;
72109;SDS011;59983;52.010;5.420;2023-09-19T06:58:29;8.00;;;4.35;;
72109;SDS011;59983;52.010;5.420;2023-09-19T07:00:55;10.50;;;4.73;;
72109;SDS011;59983;52.010;5.420;2023-09-19T07:03:23;11.23;;;4.40;;
72109;SDS011;59983;52.010;5.420;2023-09-19T07:05:54;8.90;;;4.70;;
72109;SDS011;59983;52.010;5.420;2023-09-19T07:08:22;9.23;;;4.45;;
72109;SDS011;59983;52.010;5.420;2023-09-19T07:10:49;28.05;;;5.45;;
72109;SDS011;59983;52.010;5.420;2023-09-19T07:13:16;11.77;;;4.20;;
72109;SDS011;59983;52.010;5.420;2023-09-19T07:15:43;11.77;;;4.35;;
72109;SDS011;59983;52.010;5.420;2023-09-19T07:18:13;11.50;;;4.32;;
72109;SDS011;59983;52.010;5.420;2023-09-19T07:20:43;7.35;;;4.40;;
72109;SDS011;59983;52.010;5.420;2023-09-19T07:23:17;10.00;;;4.60;;
72109;SDS011;59983;52.010;5.420;2023-09-19T07:25:49;6.27;;;4.00;;
72109;SDS011;59983;52.010;5.420;2023-09-19T07:28:16;7.85;;;4.75;;
72109;SDS011;59983;52.010;5.420;2023-09-19T07:30:42;6.50;;;5.40;;
72109;SDS011;59983;52.010;5.420;2023-09-19T07:33:10;14.23;;;4.78;;
72109;SDS011;59983;52.010;5.420;2023-09-19T07:35:38;10.70;;;4.35;;
72109;SDS011;59983;52.010;5.420;2023-09-19T07:38:08;8.00;;;3.90;;
72109;SDS011;59983;52.010;5.420;2023-09-19T07:40:36;7.00;;;3.78;;
72109;SDS011;59983;52.010;5.420;2023-09-19T07:43:03;8.75;;;4.72;;
72109;SDS011;59983;52.010;5.420;2023-09-19T07:45:31;9.32;;;4.28;;
72109;SDS011;59983;52.010;5.420;2023-09-19T07:47:58;11.98;;;5.10;;
72109;SDS011;59983;52.010;5.420;2023-09-19T07:50:27;14.23;;;4.47;;
72109;SDS011;59983;52.010;5.420;2023-09-19T07:52:55;17.25;;;4.43;;
72109;SDS011;59983;52.010;5.420;2023-09-19T07:55:22;11.73;;;4.22;;
72109;SDS011;59983;52.010;5.420;2023-09-19T07:57:51;8.32;;;4.30;;
72109;SDS011;59983;52.010;5.420;2023-09-19T08:00:18;11.15;;;4.10;;
72109;SDS011;59983;52.010;5.420;2023-09-19T08:02:45;7.93;;;4.17;;
72109;SDS011;59983;52.010;5.420;2023-09-19T08:05:22;10.13;;;4.80;;
72109;SDS011;59983;52.010;5.420;2023-09-19T08:07:49;9.23;;;4.85;;
72109;SDS011;59983;52.010;5.420;2023-09-19T08:10:15;11.25;;;4.95;;
72109;SDS011;59983;52.010;5.420;2023-09-19T08:12:46;9.75;;;4.18;;
72109;SDS011;59983;52.010;5.420;2023-09-19T08:15:18;11.10;;;4.67;;
72109;SDS011;59983;52.010;5.420;2023-09-19T08:17:46;15.50;;;5.35;;
72109;SDS011;59983;52.010;5.420;2023-09-19T08:20:13;15.48;;;5.47;;
72109;SDS011;59983;52.010;5.420;2023-09-19T08:22:44;8.93;;;4.15;;
72109;SDS011;59983;52.010;5.420;2023-09-19T08:25:14;14.15;;;4.82;;
72109;SDS011;59983;52.010;5.420;2023-09-19T08:27:45;8.43;;;4.20;;
72109;SDS011;59983;52.010;5.420;2023-09-19T08:30:16;12.95;;;5.20;;
72109;SDS011;59983;52.010;5.420;2023-09-19T08:32:44;6.70;;;3.83;;
72109;SDS011;59983;52.010;5.420;2023-09-19T08:35:12;14.95;;;4.93;;
72109;SDS011;59983;52.010;5.420;2023-09-19T08:37:39;12.32;;;4.60;;
72109;SDS011;59983;52.010;5.420;2023-09-19T08:40:06;14.17;;;4.93;;
72109;SDS011;59983;52.010;5.420;2023-09-19T08:42:51;10.98;;;4.07;;
72109;SDS011;59983;52.010;5.420;2023-09-19T08:45:20;16.63;;;4.00;;
72109;SDS011;59983;52.010;5.420;2023-09-19T08:50:47;12.55;;;4.55;;
72109;SDS011;59983;52.010;5.420;2023-09-19T08:56:10;10.98;;;4.05;;
72109;SDS011;59983;52.010;5.420;2023-09-19T08:59:11;8.18;;;3.72;;
72109;SDS011;59983;52.010;5.420;2023-09-19T09:01:34;12.25;;;4.10;;
72109;SDS011;59983;52.010;5.420;2023-09-19T09:04:02;10.77;;;3.25;;
72109;SDS011;59983;52.010;5.420;2023-09-19T09:06:30;12.37;;;3.73;;
72109;SDS011;59983;52.010;5.420;2023-09-19T09:08:59;5.55;;;4.03;;
72109;SDS011;59983;52.010;5.420;2023-09-19T09:11:26;14.13;;;3.78;;
72109;SDS011;59983;52.010;5.420;2023-09-19T09:13:54;7.68;;;3.58;;
72109;SDS011;59983;52.010;5.420;2023-09-19T09:16:21;10.70;;;3.40;;
72109;SDS011;59983;52.010;5.420;2023-09-19T09:18:52;14.10;;;4.80;;
72109;SDS011;59983;52.010;5.420;2023-09-19T09:21:21;8.40;;;3.95;;
72109;SDS011;59983;52.010;5.420;2023-09-19T09:23:50;9.77;;;4.40;;
72109;SDS011;59983;52.010;5.420;2023-09-19T09:26:40;9.52;;;4.70;;
72109;SDS011;59983;52.010;5.420;2023-09-19T09:29:11;9.18;;;4.05;;
72109;SDS011;59983;52.010;5.420;2023-09-19T09:31:39;7.93;;;3.97;;
72109;SDS011;59983;52.010;5.420;2023-09-19T09:34:08;9.65;;;5.07;;
72109;SDS011;59983;52.010;5.420;2023-09-19T09:36:36;18.55;;;4.60;;
72109;SDS011;59983;52.010;5.420;2023-09-19T09:39:05;12.32;;;4.63;;
72109;SDS011;59983;52.010;5.420;2023-09-19T09:41:44;10.73;;;4.93;;
72109;SDS011;59983;52.010;5.420;2023-09-19T09:44:15;17.73;;;4.60;;
72109;SDS011;59983;52.010;5.420;2023-09-19T09:46:44;18.10;;;5.07;;
72109;SDS011;59983;52.010;5.420;2023-09-19T09:49:25;7.05;;;3.50;;
72109;SDS011;59983;52.010;5.420;2023-09-19T09:51:59;10.98;;;3.80;;
72109;SDS011;59983;52.010;5.420;2023-09-19T09:55:00;6.53;;;3.63;;
72109;SDS011;59983;52.010;5.420;2023-09-19T09:57:31;11.33;;;3.60;;
72109;SDS011;59983;52.010;5.420;2023-09-19T09:59:58;11.02;;;3.72;;
72109;SDS011;59983;52.010;5.420;2023-09-19T10:02:42;8.25;;;3.65;;
72109;SDS011;59983;52.010;5.420;2023-09-19T10:05:18;7.22;;;3.40;;
72109;SDS011;59983;52.010;5.420;2023-09-19T10:07:50;13.18;;;3.65;;
72109;SDS011;59983;52.010;5.420;2023-09-19T10:10:32;11.27;;;4.13;;
72109;SDS011;59983;52.010;5.420;2023-09-19T10:13:14;12.20;;;3.75;;
72109;SDS011;59983;52.010;5.420;2023-09-19T10:15:48;10.82;;;3.75;;
72109;SDS011;59983;52.010;5.420;2023-09-19T10:18:22;11.50;;;3.92;;
72109;SDS011;59983;52.010;5.420;2023-09-19T10:20:50;8.20;;;3.65;;
72109;SDS011;59983;52.010;5.420;2023-09-19T10:23:18;6.70;;;3.40;;
72109;SDS011;59983;52.010;5.420;2023-09-19T10:25:50;10.05;;;5.05;;
72109;SDS011;59983;52.010;5.420;2023-09-19T10:28:19;13.10;;;3.92;;
72109;SDS011;59983;52.010;5.420;2023-09-19T10:30:52;12.38;;;4.30;;
72109;SDS011;59983;52.010;5.420;2023-09-19T10:33:23;6.40;;;3.88;;
72109;SDS011;59983;52.010;5.420;2023-09-19T10:35:53;9.10;;;3.90;;
72109;SDS011;59983;52.010;5.420;2023-09-19T10:38:26;9.27;;;3.70;;
72109;SDS011;59983;52.010;5.420;2023-09-19T10:40:56;8.57;;;3.65;;
72109;SDS011;59983;52.010;5.420;2023-09-19T10:43:31;8.20;;;3.80;;
72109;SDS011;59983;52.010;5.420;2023-09-19T10:46:02;10.93;;;3.97;;
72109;SDS011;59983;52.010;5.420;2023-09-19T10:48:37;11.53;;;5.03;;
72109;SDS011;59983;52.010;5.420;2023-09-19T10:51:10;5.32;;;3.40;;
72109;SDS011;59983;52.010;5.420;2023-09-19T10:56:38;10.05;;;4.35;;
72109;SDS011;59983;52.010;5.420;2023-09-19T10:59:05;14.15;;;4.28;;
72109;SDS011;59983;52.010;5.420;2023-09-19T11:01:54;11.20;;;3.67;;
72109;SDS011;59983;52.010;5.420;2023-09-19T11:04:29;9.60;;;3.65;;
72109;SDS011;59983;52.010;5.420;2023-09-19T11:26:50;9.63;;;3.45;;
72109;SDS011;59983;52.010;5.420;2023-09-19T11:29:24;7.13;;;3.20;;
72109;SDS011;59983;52.010;5.420;2023-09-19T11:31:52;4.43;;;3.20;;
72109;SDS011;59983;52.010;5.420;2023-09-19T11:34:37;5.53;;;2.95;;
72109;SDS011;59983;52.010;5.420;2023-09-19T11:42:45;8.40;;;3.00;;
72109;SDS011;59983;52.010;5.420;2023-09-19T11:48:15;4.25;;;2.90;;
72109;SDS011;59983;52.010;5.420;2023-09-19T11:50:44;6.45;;;2.88;;
72109;SDS011;59983;52.010;5.420;2023-09-19T11:53:13;6.57;;;2.90;;
72109;SDS011;59983;52.010;5.420;2023-09-19T11:55:42;8.13;;;2.90;;
72109;SDS011;59983;52.010;5.420;2023-09-19T11:58:13;4.35;;;2.53;;
72109;SDS011;59983;52.010;5.420;2023-09-19T12:00:43;2.75;;;2.22;;
72109;SDS011;59983;52.010;5.420;2023-09-19T12:03:12;14.77;;;3.00;;
72109;SDS011;59983;52.010;5.420;2023-09-19T12:05:41;6.53;;;2.83;;
72109;SDS011;59983;52.010;5.420;2023-09-19T12:08:07;8.27;;;2.27;;
72109;SDS011;59983;52.010;5.420;2023-09-19T12:10:56;2.65;;;2.28;;
72109;SDS011;59983;52.010;5.420;2023-09-19T12:13:22;2.92;;;2.50;;
72109;SDS011;59983;52.010;5.420;2023-09-19T12:15:48;5.07;;;2.95;;
72109;SDS011;59983;52.010;5.420;2023-09-19T12:18:28;8.73;;;3.08;;
72109;SDS011;59983;52.010;5.420;2023-09-19T12:20:56;4.57;;;2.53;;
72109;SDS011;59983;52.010;5.420;2023-09-19T12:23:24;14.93;;;2.92;;
72109;SDS011;59983;52.010;5.420;2023-09-19T12:25:54;3.78;;;2.83;;
72109;SDS011;59983;52.010;5.420;2023-09-19T12:28:24;4.43;;;2.17;;
72109;SDS011;59983;52.010;5.420;2023-09-19T12:30:53;4.43;;;2.90;;
72109;SDS011;59983;52.010;5.420;2023-09-19T12:33:24;3.93;;;2.47;;
72109;SDS011;59983;52.010;5.420;2023-09-19T12:35:54;3.08;;;2.60;;
72109;SDS011;59983;52.010;5.420;2023-09-19T12:38:26;6.10;;;3.00;;
72109;SDS011;59983;52.010;5.420;2023-09-19T12:40:59;6.53;;;2.22;;
72109;SDS011;59983;52.010;5.420;2023-09-19T12:43:28;2.50;;;2.30;;
72109;SDS011;59983;52.010;5.420;2023-09-19T12:45:59;4.00;;;2.87;;
72109;SDS011;59983;52.010;5.420;2023-09-19T12:48:26;4.55;;;2.60;;
72109;SDS011;59983;52.010;5.420;2023-09-19T12:51:00;3.08;;;2.10;;
72109;SDS011;59983;52.010;5.420;2023-09-19T12:53:32;5.68;;;2.97;;
72109;SDS011;59983;52.010;5.420;2023-09-19T12:56:11;4.68;;;3.05;;
72109;SDS011;59983;52.010;5.420;2023-09-19T13:01:22;8.05;;;3.25;;
72109;SDS011;59983;52.010;5.420;2023-09-19T13:06:47;2.67;;;2.15;;
72109;SDS011;59983;52.010;5.420;2023-09-19T13:09:18;6.68;;;2.80;;
72109;SDS011;59983;52.010;5.420;2023-09-19T13:11:54;6.17;;;2.17;;
72109;SDS011;59983;52.010;5.420;2023-09-19T13:14:22;4.57;;;2.65;;
72109;SDS011;59983;52.010;5.420;2023-09-19T13:16:54;4.35;;;2.63;;
72109;SDS011;59983;52.010;5.420;2023-09-19T13:25:10;6.30;;;2.80;;
72109;SDS011;59983;52.010;5.420;2023-09-19T13:27:48;2.42;;;2.22;;
72109;SDS011;59983;52.010;5.420;2023-09-19T13:30:23;2.67;;;2.20;;
72109;SDS011;59983;52.010;5.420;2023-09-19T13:32:52;3.10;;;2.80;;
72109;SDS011;59983;52.010;5.420;2023-09-19T13:35:20;4.00;;;2.47;;
72109;SDS011;59983;52.010;5.420;2023-09-19T13:37:46;3.80;;;2.60;;
72109;SDS011;59983;52.010;5.420;2023-09-19T13:40:17;3.38;;;3.05;;
72109;SDS011;59983;52.010;5.420;2023-09-19T13:42:44;5.20;;;1.90;;
72109;SDS011;59983;52.010;5.420;2023-09-19T13:45:11;2.65;;;2.13;;
72109;SDS011;59983;52.010;5.420;2023-09-19T13:47:39;4.47;;;1.77;;
72109;SDS011;59983;52.010;5.420;2023-09-19T13:50:06;7.73;;;2.60;;
72109;SDS011;59983;52.010;5.420;2023-09-19T13:52:34;3.95;;;1.98;;
72109;SDS011;59983;52.010;5.420;2023-09-19T13:55:00;4.95;;;2.63;;
72109;SDS011;59983;52.010;5.420;2023-09-19T13:57:27;4.35;;;2.45;;
72109;SDS011;59983;52.010;5.420;2023-09-19T13:59:55;5.15;;;2.28;;
72109;SDS011;59983;52.010;5.420;2023-09-19T14:02:22;2.50;;;2.37;;
72109;SDS011;59983;52.010;5.420;2023-09-19T14:04:50;6.13;;;2.45;;
72109;SDS011;59983;52.010;5.420;2023-09-19T14:07:18;2.38;;;2.08;;
72109;SDS011;59983;52.010;5.420;2023-09-19T14:09:46;2.28;;;2.13;;
72109;SDS011;59983;52.010;5.420;2023-09-19T14:12:14;4.15;;;2.92;;
72109;SDS011;59983;52.010;5.420;2023-09-19T14:14:41;3.70;;;2.37;;
72109;SDS011;59983;52.010;5.420;2023-09-19T14:17:09;4.00;;;2.72;;
72109;SDS011;59983;52.010;5.420;2023-09-19T14:19:36;4.63;;;2.00;;
72109;SDS011;59983;52.010;5.420;2023-09-19T14:22:03;4.22;;;3.08;;
72109;SDS011;59983;52.010;5.420;2023-09-19T14:24:34;2.45;;;2.10;;
72109;SDS011;59983;52.010;5.420;2023-09-19T14:27:01;3.47;;;2.47;;
72109;SDS011;59983;52.010;5.420;2023-09-19T14:29:30;6.88;;;2.72;;
72109;SDS011;59983;52.010;5.420;2023-09-19T14:31:57;3.60;;;2.55;;
72109;SDS011;59983;52.010;5.420;2023-09-19T14:34:25;6.45;;;2.72;;
72109;SDS011;59983;52.010;5.420;2023-09-19T14:36:51;3.40;;;2.75;;
72109;SDS011;59983;52.010;5.420;2023-09-19T14:39:20;3.07;;;2.50;;
72109;SDS011;59983;52.010;5.420;2023-09-19T14:41:47;3.22;;;2.83;;
72109;SDS011;59983;52.010;5.420;2023-09-19T14:44:13;5.68;;;2.80;;
72109;SDS011;59983;52.010;5.420;2023-09-19T14:46:42;5.13;;;2.20;;
72109;SDS011;59983;52.010;5.420;2023-09-19T14:49:11;6.15;;;2.88;;
72109;SDS011;59983;52.010;5.420;2023-09-19T14:51:38;3.57;;;2.30;;
72109;SDS011;59983;52.010;5.420;2023-09-19T14:54:10;4.63;;;2.17;;
72109;SDS011;59983;52.010;5.420;2023-09-19T14:56:36;5.50;;;2.83;;
72109;SDS011;59983;52.010;5.420;2023-09-19T14:59:03;3.53;;;3.10;;
72109;SDS011;59983;52.010;5.420;2023-09-19T15:01:30;5.40;;;2.90;;
72109;SDS011;59983;52.010;5.420;2023-09-19T15:03:58;3.07;;;2.77;;
72109;SDS011;59983;52.010;5.420;2023-09-19T15:06:27;7.18;;;3.00;;
72109;SDS011;59983;52.010;5.420;2023-09-19T15:08:54;5.32;;;3.10;;
72109;SDS011;59983;52.010;5.420;2023-09-19T15:11:21;3.67;;;3.00;;
72109;SDS011;59983;52.010;5.420;2023-09-19T15:13:50;4.95;;;2.72;;
72109;SDS011;59983;52.010;5.420;2023-09-19T15:16:19;3.27;;;2.30;;
72109;SDS011;59983;52.010;5.420;2023-09-19T15:18:46;3.38;;;2.55;;
72109;SDS011;59983;52.010;5.420;2023-09-19T15:21:18;3.08;;;2.63;;
72109;SDS011;59983;52.010;5.420;2023-09-19T15:23:45;6.85;;;3.30;;
72109;SDS011;59983;52.010;5.420;2023-09-19T15:26:14;5.13;;;2.50;;
72109;SDS011;59983;52.010;5.420;2023-09-19T15:28:47;4.10;;;3.07;;
72109;SDS011;59983;52.010;5.420;2023-09-19T15:31:14;6.90;;;3.00;;
72109;SDS011;59983;52.010;5.420;2023-09-19T15:33:41;4.10;;;2.92;;
72109;SDS011;59983;52.010;5.420;2023-09-19T15:36:08;4.72;;;3.47;;
72109;SDS011;59983;52.010;5.420;2023-09-19T15:41:38;4.03;;;2.80;;
72109;SDS011;59983;52.010;5.420;2023-09-19T15:44:15;5.72;;;3.70;;
72109;SDS011;59983;52.010;5.420;2023-09-19T15:46:45;5.57;;;2.67;;
72109;SDS011;59983;52.010;5.420;2023-09-19T15:49:12;4.53;;;3.22;;
72109;SDS011;59983;52.010;5.420;2023-09-19T15:51:39;4.63;;;2.97;;
72109;SDS011;59983;52.010;5.420;2023-09-19T15:54:13;3.67;;;2.83;;
72109;SDS011;59983;52.010;5.420;2023-09-19T15:56:41;4.85;;;3.08;;
72109;SDS011;59983;52.010;5.420;2023-09-19T15:59:11;7.78;;;3.22;;
72109;SDS011;59983;52.010;5.420;2023-09-19T16:01:39;4.15;;;2.92;;
72109;SDS011;59983;52.010;5.420;2023-09-19T16:04:10;10.02;;;3.45;;
72109;SDS011;59983;52.010;5.420;2023-09-19T16:06:38;4.83;;;3.07;;